sensor_id;sensor_type;location;lat;lon;timestamp;P1;durP1;ratioP1;P2;durP2;ratioP2
70832;SDS011;58452;59.418;17.962;2023-03-31T00:00:35;1.17;;;1.08;;
70832;SDS011;58452;59.418;17.962;2023-03-31T00:03:00;1.20;;;0.95;;
70832;SDS011;58452;59.418;17.962;2023-03-31T00:05:26;1.98;;;1.15;;
70832;SDS011;58452;59.418;17.962;2023-03-31T00:07:55;1.30;;;1.20;;
70832;SDS011;58452;59.418;17.962;2023-03-31T00:10:28;1.48;;;1.08;;
70832;SDS011;58452;59.418;17.962;2023-03-31T00:12:56;1.00;;;1.00;;
70832;SDS011;58452;59.418;17.962;2023-03-31T00:15:22;1.20;;;1.10;;
70832;SDS011;58452;59.418;17.962;2023-03-31T00:17:47;1.70;;;1.30;;
70832;SDS011;58452;59.418;17.962;2023-03-31T00:20:13;2.15;;;0.88;;
70832;SDS011;58452;59.418;17.962;2023-03-31T00:22:39;1.55;;;1.17;;
70832;SDS011;58452;59.418;17.962;2023-03-31T00:25:13;1.40;;;0.88;;
70832;SDS011;58452;59.418;17.962;2023-03-31T00:27:41;1.15;;;1.05;;
70832;SDS011;58452;59.418;17.962;2023-03-31T00:30:08;1.10;;;1.00;;
70832;SDS011;58452;59.418;17.962;2023-03-31T00:32:34;1.83;;;1.20;;
70832;SDS011;58452;59.418;17.962;2023-03-31T00:35:00;0.80;;;0.80;;
70832;SDS011;58452;59.418;17.962;2023-03-31T00:37:26;1.40;;;1.30;;
70832;SDS011;58452;59.418;17.962;2023-03-31T00:39:52;2.20;;;1.20;;
70832;SDS011;58452;59.418;17.962;2023-03-31T00:42:17;1.73;;;1.58;;
70832;SDS011;58452;59.418;17.962;2023-03-31T00:47:47;1.48;;;1.38;;
70832;SDS011;58452;59.418;17.962;2023-03-31T00:50:16;1.70;;;1.23;;
70832;SDS011;58452;59.418;17.962;2023-03-31T00:52:45;1.65;;;1.25;;
70832;SDS011;58452;59.418;17.962;2023-03-31T00:55:17;1.52;;;0.95;;
70832;SDS011;58452;59.418;17.962;2023-03-31T00:57:48;1.90;;;1.45;;
70832;SDS011;58452;59.418;17.962;2023-03-31T01:00:17;9.15;;;2.20;;
70832;SDS011;58452;59.418;17.962;2023-03-31T01:02:47;1.73;;;1.20;;
70832;SDS011;58452;59.418;17.962;2023-03-31T01:05:23;1.25;;;1.15;;
70832;SDS011;58452;59.418;17.962;2023-03-31T01:07:51;1.10;;;1.00;;
70832;SDS011;58452;59.418;17.962;2023-03-31T01:10:19;0.77;;;0.77;;
70832;SDS011;58452;59.418;17.962;2023-03-31T01:12:48;1.83;;;1.00;;
70832;SDS011;58452;59.418;17.962;2023-03-31T01:15:16;1.73;;;1.10;;
70832;SDS011;58452;59.418;17.962;2023-03-31T01:17:42;2.58;;;1.35;;
70832;SDS011;58452;59.418;17.962;2023-03-31T01:28:39;2.20;;;1.20;;
70832;SDS011;58452;59.418;17.962;2023-03-31T01:31:41;1.70;;;1.10;;
70832;SDS011;58452;59.418;17.962;2023-03-31T01:37:40;2.05;;;1.75;;
70832;SDS011;58452;59.418;17.962;2023-03-31T01:42:54;1.50;;;1.02;;
70832;SDS011;58452;59.418;17.962;2023-03-31T01:48:20;1.30;;;1.10;;
70832;SDS011;58452;59.418;17.962;2023-03-31T01:50:51;1.52;;;1.20;;
70832;SDS011;58452;59.418;17.962;2023-03-31T01:56:07;3.53;;;1.10;;
70832;SDS011;58452;59.418;17.962;2023-03-31T01:58:40;2.50;;;1.17;;
70832;SDS011;58452;59.418;17.962;2023-03-31T02:01:15;5.13;;;2.30;;
70832;SDS011;58452;59.418;17.962;2023-03-31T02:03:47;1.60;;;1.10;;
70832;SDS011;58452;59.418;17.962;2023-03-31T02:06:20;2.17;;;0.98;;
70832;SDS011;58452;59.418;17.962;2023-03-31T02:08:54;1.60;;;0.85;;
70832;SDS011;58452;59.418;17.962;2023-03-31T02:11:25;1.42;;;1.30;;
70832;SDS011;58452;59.418;17.962;2023-03-31T02:13:53;2.17;;;1.25;;
70832;SDS011;58452;59.418;17.962;2023-03-31T02:16:23;2.50;;;0.88;;
70832;SDS011;58452;59.418;17.962;2023-03-31T02:18:52;1.25;;;1.10;;
70832;SDS011;58452;59.418;17.962;2023-03-31T02:21:27;1.42;;;1.33;;
70832;SDS011;58452;59.418;17.962;2023-03-31T02:23:55;1.50;;;1.10;;
70832;SDS011;58452;59.418;17.962;2023-03-31T02:26:23;1.10;;;1.00;;
70832;SDS011;58452;59.418;17.962;2023-03-31T02:28:52;1.08;;;0.98;;
70832;SDS011;58452;59.418;17.962;2023-03-31T02:34:08;2.33;;;1.13;;
70832;SDS011;58452;59.418;17.962;2023-03-31T02:36:34;1.83;;;1.15;;
70832;SDS011;58452;59.418;17.962;2023-03-31T02:39:07;1.38;;;1.20;;
70832;SDS011;58452;59.418;17.962;2023-03-31T02:41:35;1.02;;;0.93;;
70832;SDS011;58452;59.418;17.962;2023-03-31T02:44:01;1.75;;;0.98;;
70832;SDS011;58452;59.418;17.962;2023-03-31T02:46:27;2.15;;;0.90;;
70832;SDS011;58452;59.418;17.962;2023-03-31T02:48:57;2.60;;;2.22;;
70832;SDS011;58452;59.418;17.962;2023-03-31T02:56:59;1.20;;;1.10;;
70832;SDS011;58452;59.418;17.962;2023-03-31T02:59:50;0.95;;;0.95;;
70832;SDS011;58452;59.418;17.962;2023-03-31T03:05:27;1.45;;;1.08;;
70832;SDS011;58452;59.418;17.962;2023-03-31T03:13:18;1.40;;;1.27;;
70832;SDS011;58452;59.418;17.962;2023-03-31T03:16:23;2.53;;;1.15;;
70832;SDS011;58452;59.418;17.962;2023-03-31T03:18:58;1.17;;;1.00;;
70832;SDS011;58452;59.418;17.962;2023-03-31T03:21:28;1.55;;;1.17;;
70832;SDS011;58452;59.418;17.962;2023-03-31T03:23:54;1.42;;;1.00;;
70832;SDS011;58452;59.418;17.962;2023-03-31T03:26:20;1.70;;;1.33;;
70832;SDS011;58452;59.418;17.962;2023-03-31T03:28:51;1.23;;;0.90;;
70832;SDS011;58452;59.418;17.962;2023-03-31T03:31:17;2.05;;;0.98;;
70832;SDS011;58452;59.418;17.962;2023-03-31T03:33:43;2.03;;;0.65;;
70832;SDS011;58452;59.418;17.962;2023-03-31T03:36:10;1.08;;;0.88;;
70832;SDS011;58452;59.418;17.962;2023-03-31T03:38:36;1.77;;;0.90;;
70832;SDS011;58452;59.418;17.962;2023-03-31T03:41:01;1.85;;;1.13;;
70832;SDS011;58452;59.418;17.962;2023-03-31T03:43:27;1.25;;;1.15;;
70832;SDS011;58452;59.418;17.962;2023-03-31T03:45:52;1.50;;;1.20;;
70832;SDS011;58452;59.418;17.962;2023-03-31T03:48:18;1.45;;;1.35;;
70832;SDS011;58452;59.418;17.962;2023-03-31T03:50:44;4.97;;;1.40;;
70832;SDS011;58452;59.418;17.962;2023-03-31T03:53:10;1.40;;;1.30;;
70832;SDS011;58452;59.418;17.962;2023-03-31T03:55:36;1.48;;;1.10;;
70832;SDS011;58452;59.418;17.962;2023-03-31T03:58:01;1.30;;;1.20;;
70832;SDS011;58452;59.418;17.962;2023-03-31T04:00:27;2.40;;;0.98;;
70832;SDS011;58452;59.418;17.962;2023-03-31T04:02:52;1.25;;;1.15;;
70832;SDS011;58452;59.418;17.962;2023-03-31T04:05:17;1.58;;;1.20;;
70832;SDS011;58452;59.418;17.962;2023-03-31T04:07:43;1.63;;;1.33;;
70832;SDS011;58452;59.418;17.962;2023-03-31T04:10:08;1.17;;;1.05;;
70832;SDS011;58452;59.418;17.962;2023-03-31T04:12:34;4.80;;;1.20;;
70832;SDS011;58452;59.418;17.962;2023-03-31T04:15:00;1.00;;;0.90;;
70832;SDS011;58452;59.418;17.962;2023-03-31T04:17:26;1.45;;;1.23;;
70832;SDS011;58452;59.418;17.962;2023-03-31T04:20:07;0.82;;;0.82;;
70832;SDS011;58452;59.418;17.962;2023-03-31T04:22:35;1.70;;;1.40;;
70832;SDS011;58452;59.418;17.962;2023-03-31T04:25:08;4.38;;;2.60;;
70832;SDS011;58452;59.418;17.962;2023-03-31T04:27:42;4.18;;;1.33;;
70832;SDS011;58452;59.418;17.962;2023-03-31T04:30:13;1.20;;;0.93;;
70832;SDS011;58452;59.418;17.962;2023-03-31T04:32:52;3.47;;;1.00;;
70832;SDS011;58452;59.418;17.962;2023-03-31T04:35:22;4.45;;;1.20;;
70832;SDS011;58452;59.418;17.962;2023-03-31T04:37:49;1.48;;;1.15;;
70832;SDS011;58452;59.418;17.962;2023-03-31T04:40:16;1.15;;;0.90;;
70832;SDS011;58452;59.418;17.962;2023-03-31T04:42:42;1.08;;;0.90;;
70832;SDS011;58452;59.418;17.962;2023-03-31T04:45:09;1.33;;;1.20;;
70832;SDS011;58452;59.418;17.962;2023-03-31T04:47:36;2.28;;;1.40;;
70832;SDS011;58452;59.418;17.962;2023-03-31T04:50:01;2.10;;;1.75;;
70832;SDS011;58452;59.418;17.962;2023-03-31T04:52:27;1.83;;;1.38;;
70832;SDS011;58452;59.418;17.962;2023-03-31T04:54:53;1.40;;;1.27;;
70832;SDS011;58452;59.418;17.962;2023-03-31T04:57:18;1.73;;;1.50;;
70832;SDS011;58452;59.418;17.962;2023-03-31T04:59:44;1.55;;;1.45;;
70832;SDS011;58452;59.418;17.962;2023-03-31T05:02:10;1.52;;;1.10;;
70832;SDS011;58452;59.418;17.962;2023-03-31T05:04:35;2.15;;;1.40;;
70832;SDS011;58452;59.418;17.962;2023-03-31T05:07:02;1.83;;;1.35;;
70832;SDS011;58452;59.418;17.962;2023-03-31T05:09:27;2.85;;;1.30;;
70832;SDS011;58452;59.418;17.962;2023-03-31T05:11:53;1.77;;;1.35;;
70832;SDS011;58452;59.418;17.962;2023-03-31T05:14:18;2.72;;;1.48;;
70832;SDS011;58452;59.418;17.962;2023-03-31T05:16:44;1.55;;;1.45;;
70832;SDS011;58452;59.418;17.962;2023-03-31T05:19:10;2.20;;;1.02;;
70832;SDS011;58452;59.418;17.962;2023-03-31T05:21:36;1.33;;;1.23;;
70832;SDS011;58452;59.418;17.962;2023-03-31T05:24:01;1.48;;;1.38;;
70832;SDS011;58452;59.418;17.962;2023-03-31T05:26:28;2.20;;;1.40;;
70832;SDS011;58452;59.418;17.962;2023-03-31T05:28:54;2.53;;;2.00;;
70832;SDS011;58452;59.418;17.962;2023-03-31T05:31:20;1.40;;;1.30;;
70832;SDS011;58452;59.418;17.962;2023-03-31T05:33:46;2.03;;;1.30;;
70832;SDS011;58452;59.418;17.962;2023-03-31T05:36:12;0.82;;;0.82;;
70832;SDS011;58452;59.418;17.962;2023-03-31T05:38:39;3.67;;;1.40;;
70832;SDS011;58452;59.418;17.962;2023-03-31T05:41:06;5.10;;;1.50;;
70832;SDS011;58452;59.418;17.962;2023-03-31T05:43:33;2.53;;;1.40;;
70832;SDS011;58452;59.418;17.962;2023-03-31T05:45:59;2.88;;;1.20;;
70832;SDS011;58452;59.418;17.962;2023-03-31T05:48:25;2.72;;;1.77;;
70832;SDS011;58452;59.418;17.962;2023-03-31T05:50:50;5.75;;;1.40;;
70832;SDS011;58452;59.418;17.962;2023-03-31T05:56:35;2.75;;;2.08;;
70832;SDS011;58452;59.418;17.962;2023-03-31T05:59:01;2.83;;;1.48;;
70832;SDS011;58452;59.418;17.962;2023-03-31T06:01:27;1.23;;;1.00;;
70832;SDS011;58452;59.418;17.962;2023-03-31T06:03:53;4.07;;;2.30;;
70832;SDS011;58452;59.418;17.962;2023-03-31T06:06:20;4.10;;;1.52;;
70832;SDS011;58452;59.418;17.962;2023-03-31T06:08:46;1.33;;;0.98;;
70832;SDS011;58452;59.418;17.962;2023-03-31T06:11:19;2.53;;;1.30;;
70832;SDS011;58452;59.418;17.962;2023-03-31T06:13:45;2.03;;;1.25;;
70832;SDS011;58452;59.418;17.962;2023-03-31T06:16:12;1.30;;;1.17;;
70832;SDS011;58452;59.418;17.962;2023-03-31T06:18:39;2.40;;;1.45;;
70832;SDS011;58452;59.418;17.962;2023-03-31T06:21:05;1.17;;;1.00;;
70832;SDS011;58452;59.418;17.962;2023-03-31T06:23:32;2.15;;;1.23;;
70832;SDS011;58452;59.418;17.962;2023-03-31T06:26:02;3.15;;;1.05;;
70832;SDS011;58452;59.418;17.962;2023-03-31T06:28:30;2.80;;;1.08;;
70832;SDS011;58452;59.418;17.962;2023-03-31T06:30:59;1.30;;;1.00;;
70832;SDS011;58452;59.418;17.962;2023-03-31T06:33:26;2.17;;;1.05;;
70832;SDS011;58452;59.418;17.962;2023-03-31T06:35:53;4.13;;;1.27;;
70832;SDS011;58452;59.418;17.962;2023-03-31T06:38:20;1.70;;;1.05;;
70832;SDS011;58452;59.418;17.962;2023-03-31T06:40:45;2.13;;;1.38;;
70832;SDS011;58452;59.418;17.962;2023-03-31T06:43:11;2.33;;;1.50;;
70832;SDS011;58452;59.418;17.962;2023-03-31T06:45:36;5.95;;;1.92;;
70832;SDS011;58452;59.418;17.962;2023-03-31T06:48:02;2.10;;;1.10;;
70832;SDS011;58452;59.418;17.962;2023-03-31T06:50:27;0.98;;;0.88;;
70832;SDS011;58452;59.418;17.962;2023-03-31T06:52:53;2.40;;;0.90;;
70832;SDS011;58452;59.418;17.962;2023-03-31T06:55:19;1.38;;;1.10;;
70832;SDS011;58452;59.418;17.962;2023-03-31T06:57:45;2.95;;;1.00;;
70832;SDS011;58452;59.418;17.962;2023-03-31T07:00:10;1.90;;;1.80;;
70832;SDS011;58452;59.418;17.962;2023-03-31T07:02:36;1.58;;;1.48;;
70832;SDS011;58452;59.418;17.962;2023-03-31T07:05:02;2.17;;;1.65;;
70832;SDS011;58452;59.418;17.962;2023-03-31T07:07:30;2.13;;;1.45;;
70832;SDS011;58452;59.418;17.962;2023-03-31T07:09:56;2.60;;;1.80;;
70832;SDS011;58452;59.418;17.962;2023-03-31T07:12:22;6.55;;;2.17;;
70832;SDS011;58452;59.418;17.962;2023-03-31T07:14:47;2.00;;;1.10;;
70832;SDS011;58452;59.418;17.962;2023-03-31T07:17:13;1.13;;;1.05;;
70832;SDS011;58452;59.418;17.962;2023-03-31T07:19:38;6.03;;;1.35;;
70832;SDS011;58452;59.418;17.962;2023-03-31T07:22:06;2.63;;;1.60;;
70832;SDS011;58452;59.418;17.962;2023-03-31T07:24:32;1.05;;;0.93;;
70832;SDS011;58452;59.418;17.962;2023-03-31T07:26:57;2.50;;;1.10;;
70832;SDS011;58452;59.418;17.962;2023-03-31T07:29:23;2.05;;;1.10;;
70832;SDS011;58452;59.418;17.962;2023-03-31T07:31:48;2.30;;;1.30;;
70832;SDS011;58452;59.418;17.962;2023-03-31T07:34:14;9.65;;;1.63;;
70832;SDS011;58452;59.418;17.962;2023-03-31T07:36:40;3.65;;;1.08;;
70832;SDS011;58452;59.418;17.962;2023-03-31T07:39:05;1.10;;;1.00;;
70832;SDS011;58452;59.418;17.962;2023-03-31T07:41:31;4.00;;;1.17;;
70832;SDS011;58452;59.418;17.962;2023-03-31T07:43:56;2.33;;;1.02;;
70832;SDS011;58452;59.418;17.962;2023-03-31T07:46:23;0.90;;;0.73;;
70832;SDS011;58452;59.418;17.962;2023-03-31T07:48:50;0.60;;;0.57;;
70832;SDS011;58452;59.418;17.962;2023-03-31T07:51:17;1.10;;;0.98;;
70832;SDS011;58452;59.418;17.962;2023-03-31T07:53:44;3.03;;;1.15;;
70832;SDS011;58452;59.418;17.962;2023-03-31T07:56:11;1.77;;;1.10;;
70832;SDS011;58452;59.418;17.962;2023-03-31T07:58:36;1.60;;;0.85;;
70832;SDS011;58452;59.418;17.962;2023-03-31T08:01:02;0.82;;;0.82;;
70832;SDS011;58452;59.418;17.962;2023-03-31T08:03:28;4.70;;;1.05;;
70832;SDS011;58452;59.418;17.962;2023-03-31T08:05:55;1.25;;;0.85;;
70832;SDS011;58452;59.418;17.962;2023-03-31T08:08:21;0.70;;;0.65;;
70832;SDS011;58452;59.418;17.962;2023-03-31T08:10:47;1.95;;;1.00;;
70832;SDS011;58452;59.418;17.962;2023-03-31T08:13:12;1.38;;;1.08;;
70832;SDS011;58452;59.418;17.962;2023-03-31T08:15:38;0.88;;;0.75;;
70832;SDS011;58452;59.418;17.962;2023-03-31T08:18:04;2.85;;;0.95;;
70832;SDS011;58452;59.418;17.962;2023-03-31T08:20:30;1.45;;;0.88;;
70832;SDS011;58452;59.418;17.962;2023-03-31T08:22:56;2.03;;;0.95;;
70832;SDS011;58452;59.418;17.962;2023-03-31T08:25:21;1.27;;;0.93;;
70832;SDS011;58452;59.418;17.962;2023-03-31T08:27:48;3.05;;;1.20;;
70832;SDS011;58452;59.418;17.962;2023-03-31T08:30:15;2.33;;;0.93;;
70832;SDS011;58452;59.418;17.962;2023-03-31T08:32:42;1.17;;;0.90;;
70832;SDS011;58452;59.418;17.962;2023-03-31T08:35:08;1.70;;;0.73;;
70832;SDS011;58452;59.418;17.962;2023-03-31T08:37:34;1.83;;;0.90;;
70832;SDS011;58452;59.418;17.962;2023-03-31T08:40:00;1.90;;;0.77;;
70832;SDS011;58452;59.418;17.962;2023-03-31T08:47:39;1.90;;;0.88;;
70832;SDS011;58452;59.418;17.962;2023-03-31T08:50:07;0.95;;;0.60;;
70832;SDS011;58452;59.418;17.962;2023-03-31T08:52:45;4.53;;;1.05;;
70832;SDS011;58452;59.418;17.962;2023-03-31T08:55:24;1.15;;;0.70;;
70832;SDS011;58452;59.418;17.962;2023-03-31T08:58:01;1.90;;;0.75;;
70832;SDS011;58452;59.418;17.962;2023-03-31T09:00:37;7.68;;;1.35;;
70832;SDS011;58452;59.418;17.962;2023-03-31T09:03:13;0.88;;;0.70;;
70832;SDS011;58452;59.418;17.962;2023-03-31T09:05:57;1.83;;;1.00;;
70832;SDS011;58452;59.418;17.962;2023-03-31T09:08:37;0.95;;;0.80;;
70832;SDS011;58452;59.418;17.962;2023-03-31T09:20:04;0.50;;;0.50;;
70832;SDS011;58452;59.418;17.962;2023-03-31T09:22:21;0.85;;;0.65;;
70832;SDS011;58452;59.418;17.962;2023-03-31T09:25:24;1.25;;;0.90;;
70832;SDS011;58452;59.418;17.962;2023-03-31T09:27:47;2.38;;;0.95;;
70832;SDS011;58452;59.418;17.962;2023-03-31T09:32:50;0.80;;;0.68;;
70832;SDS011;58452;59.418;17.962;2023-03-31T09:35:20;1.00;;;0.75;;
70832;SDS011;58452;59.418;17.962;2023-03-31T09:37:49;2.83;;;1.05;;
70832;SDS011;58452;59.418;17.962;2023-03-31T09:40:22;1.73;;;0.93;;
70832;SDS011;58452;59.418;17.962;2023-03-31T09:42:53;0.63;;;0.63;;
70832;SDS011;58452;59.418;17.962;2023-03-31T09:45:23;1.23;;;0.90;;
70832;SDS011;58452;59.418;17.962;2023-03-31T09:47:50;0.60;;;0.60;;
70832;SDS011;58452;59.418;17.962;2023-03-31T09:50:18;0.98;;;0.80;;
70832;SDS011;58452;59.418;17.962;2023-03-31T09:52:47;1.92;;;0.88;;
70832;SDS011;58452;59.418;17.962;2023-03-31T09:55:20;0.75;;;0.70;;
70832;SDS011;58452;59.418;17.962;2023-03-31T10:00:19;2.35;;;0.68;;
70832;SDS011;58452;59.418;17.962;2023-03-31T10:07:50;0.88;;;0.80;;
70832;SDS011;58452;59.418;17.962;2023-03-31T10:10:25;0.80;;;0.70;;
70832;SDS011;58452;59.418;17.962;2023-03-31T10:12:55;1.10;;;0.63;;
70832;SDS011;58452;59.418;17.962;2023-03-31T10:15:22;1.40;;;0.73;;
70832;SDS011;58452;59.418;17.962;2023-03-31T10:17:51;1.48;;;0.80;;
70832;SDS011;58452;59.418;17.962;2023-03-31T10:20:59;3.72;;;0.60;;
70832;SDS011;58452;59.418;17.962;2023-03-31T10:23:17;1.75;;;0.80;;
70832;SDS011;58452;59.418;17.962;2023-03-31T10:25:48;1.85;;;1.00;;
70832;SDS011;58452;59.418;17.962;2023-03-31T10:28:16;0.93;;;0.57;;
70832;SDS011;58452;59.418;17.962;2023-03-31T10:30:50;2.85;;;1.02;;
70832;SDS011;58452;59.418;17.962;2023-03-31T10:33:18;0.50;;;0.50;;
70832;SDS011;58452;59.418;17.962;2023-03-31T10:35:49;2.88;;;0.80;;
70832;SDS011;58452;59.418;17.962;2023-03-31T10:40:54;3.40;;;1.27;;
70832;SDS011;58452;59.418;17.962;2023-03-31T10:43:25;1.40;;;0.70;;
70832;SDS011;58452;59.418;17.962;2023-03-31T10:45:55;1.20;;;0.60;;
70832;SDS011;58452;59.418;17.962;2023-03-31T10:50:51;2.08;;;0.68;;
70832;SDS011;58452;59.418;17.962;2023-03-31T10:53:18;1.95;;;0.60;;
70832;SDS011;58452;59.418;17.962;2023-03-31T11:03:59;0.98;;;0.85;;
70832;SDS011;58452;59.418;17.962;2023-03-31T11:36:51;0.80;;;0.70;;
70832;SDS011;58452;59.418;17.962;2023-03-31T11:42:49;0.60;;;0.60;;
70832;SDS011;58452;59.418;17.962;2023-03-31T11:45:23;0.65;;;0.50;;
70832;SDS011;58452;59.418;17.962;2023-03-31T11:47:53;1.83;;;0.65;;
70832;SDS011;58452;59.418;17.962;2023-03-31T11:50:27;0.98;;;0.60;;
70832;SDS011;58452;59.418;17.962;2023-03-31T11:52:57;0.80;;;0.68;;
70832;SDS011;58452;59.418;17.962;2023-03-31T11:55:27;2.40;;;0.68;;
70832;SDS011;58452;59.418;17.962;2023-03-31T12:05:43;2.47;;;0.60;;
70832;SDS011;58452;59.418;17.962;2023-03-31T12:08:22;3.17;;;0.65;;
70832;SDS011;58452;59.418;17.962;2023-03-31T12:11:10;0.65;;;0.50;;
70832;SDS011;58452;59.418;17.962;2023-03-31T12:13:52;1.85;;;0.50;;
70832;SDS011;58452;59.418;17.962;2023-03-31T12:16:41;2.50;;;0.95;;
70832;SDS011;58452;59.418;17.962;2023-03-31T12:19:20;0.88;;;0.68;;
70832;SDS011;58452;59.418;17.962;2023-03-31T12:22:47;1.20;;;0.80;;
70832;SDS011;58452;59.418;17.962;2023-03-31T12:25:20;0.40;;;0.40;;
70832;SDS011;58452;59.418;17.962;2023-03-31T12:27:47;1.90;;;0.55;;
70832;SDS011;58452;59.418;17.962;2023-03-31T12:33:08;0.73;;;0.43;;
70832;SDS011;58452;59.418;17.962;2023-03-31T12:41:27;2.08;;;0.38;;
70832;SDS011;58452;59.418;17.962;2023-03-31T12:52:14;0.65;;;0.50;;
70832;SDS011;58452;59.418;17.962;2023-03-31T12:57:21;0.70;;;0.40;;
70832;SDS011;58452;59.418;17.962;2023-03-31T13:02:41;1.10;;;0.50;;
70832;SDS011;58452;59.418;17.962;2023-03-31T13:08:08;0.60;;;0.50;;
70832;SDS011;58452;59.418;17.962;2023-03-31T13:11:16;0.85;;;0.30;;
70832;SDS011;58452;59.418;17.962;2023-03-31T13:13:23;1.27;;;0.70;;
70832;SDS011;58452;59.418;17.962;2023-03-31T13:15:51;2.58;;;0.60;;
70832;SDS011;58452;59.418;17.962;2023-03-31T13:18:19;0.82;;;0.68;;
70832;SDS011;58452;59.418;17.962;2023-03-31T13:20:46;2.38;;;0.63;;
70832;SDS011;58452;59.418;17.962;2023-03-31T13:23:23;0.70;;;0.40;;
70832;SDS011;58452;59.418;17.962;2023-03-31T13:25:50;1.13;;;0.60;;
70832;SDS011;58452;59.418;17.962;2023-03-31T13:28:22;1.20;;;0.45;;
70832;SDS011;58452;59.418;17.962;2023-03-31T13:39:47;1.02;;;0.45;;
70832;SDS011;58452;59.418;17.962;2023-03-31T13:44:36;1.52;;;0.50;;
70832;SDS011;58452;59.418;17.962;2023-03-31T13:49:48;0.60;;;0.52;;
70832;SDS011;58452;59.418;17.962;2023-03-31T13:52:19;1.08;;;0.50;;
70832;SDS011;58452;59.418;17.962;2023-03-31T13:55:08;0.50;;;0.40;;
70832;SDS011;58452;59.418;17.962;2023-03-31T14:06:21;0.70;;;0.50;;
70832;SDS011;58452;59.418;17.962;2023-03-31T14:14:15;0.80;;;0.30;;
70832;SDS011;58452;59.418;17.962;2023-03-31T14:16:43;0.98;;;0.57;;
70832;SDS011;58452;59.418;17.962;2023-03-31T14:25:23;0.50;;;0.50;;
70832;SDS011;58452;59.418;17.962;2023-03-31T14:36:21;1.80;;;0.52;;
70832;SDS011;58452;59.418;17.962;2023-03-31T14:38:53;3.38;;;0.38;;
70832;SDS011;58452;59.418;17.962;2023-03-31T14:41:25;1.50;;;0.40;;
70832;SDS011;58452;59.418;17.962;2023-03-31T14:44:02;2.15;;;0.40;;
70832;SDS011;58452;59.418;17.962;2023-03-31T14:46:31;0.95;;;0.70;;
70832;SDS011;58452;59.418;17.962;2023-03-31T14:49:05;0.93;;;0.38;;
70832;SDS011;58452;59.418;17.962;2023-03-31T14:51:41;1.15;;;0.80;;
70832;SDS011;58452;59.418;17.962;2023-03-31T14:54:14;0.88;;;0.60;;
70832;SDS011;58452;59.418;17.962;2023-03-31T14:56:41;2.17;;;0.47;;
70832;SDS011;58452;59.418;17.962;2023-03-31T14:59:09;2.15;;;0.57;;
70832;SDS011;58452;59.418;17.962;2023-03-31T15:01:35;1.05;;;0.57;;
70832;SDS011;58452;59.418;17.962;2023-03-31T15:04:06;0.77;;;0.70;;
70832;SDS011;58452;59.418;17.962;2023-03-31T15:06:39;2.47;;;0.98;;
70832;SDS011;58452;59.418;17.962;2023-03-31T15:09:06;1.30;;;0.88;;
70832;SDS011;58452;59.418;17.962;2023-03-31T15:11:35;3.05;;;0.77;;
70832;SDS011;58452;59.418;17.962;2023-03-31T15:14:01;0.38;;;0.32;;
70832;SDS011;58452;59.418;17.962;2023-03-31T15:18:54;0.73;;;0.50;;
70832;SDS011;58452;59.418;17.962;2023-03-31T15:21:22;2.50;;;1.25;;
70832;SDS011;58452;59.418;17.962;2023-03-31T15:23:50;0.85;;;0.60;;
70832;SDS011;58452;59.418;17.962;2023-03-31T15:26:17;1.23;;;0.60;;
70832;SDS011;58452;59.418;17.962;2023-03-31T15:28:49;0.88;;;0.55;;
70832;SDS011;58452;59.418;17.962;2023-03-31T15:31:30;1.27;;;0.70;;
70832;SDS011;58452;59.418;17.962;2023-03-31T15:33:56;1.90;;;0.65;;
70832;SDS011;58452;59.418;17.962;2023-03-31T15:36:21;3.10;;;1.08;;
70832;SDS011;58452;59.418;17.962;2023-03-31T15:38:53;1.95;;;0.82;;
70832;SDS011;58452;59.418;17.962;2023-03-31T15:41:20;0.47;;;0.30;;
70832;SDS011;58452;59.418;17.962;2023-03-31T15:43:49;1.20;;;0.50;;
70832;SDS011;58452;59.418;17.962;2023-03-31T15:49:02;3.58;;;0.70;;
70832;SDS011;58452;59.418;17.962;2023-03-31T15:51:36;1.35;;;0.57;;
70832;SDS011;58452;59.418;17.962;2023-03-31T15:54:02;0.90;;;0.50;;
70832;SDS011;58452;59.418;17.962;2023-03-31T15:59:00;0.80;;;0.38;;
70832;SDS011;58452;59.418;17.962;2023-03-31T16:01:31;1.45;;;0.50;;
70832;SDS011;58452;59.418;17.962;2023-03-31T16:04:00;1.35;;;0.65;;
70832;SDS011;58452;59.418;17.962;2023-03-31T16:06:33;1.05;;;0.47;;
70832;SDS011;58452;59.418;17.962;2023-03-31T16:09:07;2.65;;;0.70;;
70832;SDS011;58452;59.418;17.962;2023-03-31T16:11:49;1.77;;;0.75;;
70832;SDS011;58452;59.418;17.962;2023-03-31T16:14:21;1.05;;;0.57;;
70832;SDS011;58452;59.418;17.962;2023-03-31T16:16:53;3.63;;;0.95;;
70832;SDS011;58452;59.418;17.962;2023-03-31T16:19:25;1.88;;;0.75;;
70832;SDS011;58452;59.418;17.962;2023-03-31T16:21:56;0.68;;;0.40;;
70832;SDS011;58452;59.418;17.962;2023-03-31T16:24:32;1.88;;;0.52;;
70832;SDS011;58452;59.418;17.962;2023-03-31T16:27:00;1.00;;;0.57;;
70832;SDS011;58452;59.418;17.962;2023-03-31T16:29:30;3.33;;;0.63;;
70832;SDS011;58452;59.418;17.962;2023-03-31T16:32:07;2.92;;;0.50;;
70832;SDS011;58452;59.418;17.962;2023-03-31T16:34:56;2.85;;;0.85;;
70832;SDS011;58452;59.418;17.962;2023-03-31T16:37:23;0.40;;;0.20;;
70832;SDS011;58452;59.418;17.962;2023-03-31T16:39:49;1.27;;;0.75;;
70832;SDS011;58452;59.418;17.962;2023-03-31T16:42:15;1.08;;;0.65;;
70832;SDS011;58452;59.418;17.962;2023-03-31T16:44:40;0.68;;;0.65;;
70832;SDS011;58452;59.418;17.962;2023-03-31T16:47:06;0.93;;;0.47;;
70832;SDS011;58452;59.418;17.962;2023-03-31T16:49:31;0.93;;;0.60;;
70832;SDS011;58452;59.418;17.962;2023-03-31T16:51:57;0.75;;;0.50;;
70832;SDS011;58452;59.418;17.962;2023-03-31T16:54:28;0.85;;;0.60;;
70832;SDS011;58452;59.418;17.962;2023-03-31T16:56:54;1.48;;;0.75;;
70832;SDS011;58452;59.418;17.962;2023-03-31T16:59:20;1.85;;;0.77;;
70832;SDS011;58452;59.418;17.962;2023-03-31T17:01:45;1.10;;;0.63;;
70832;SDS011;58452;59.418;17.962;2023-03-31T17:04:11;2.03;;;0.68;;
70832;SDS011;58452;59.418;17.962;2023-03-31T17:06:36;2.78;;;1.70;;
70832;SDS011;58452;59.418;17.962;2023-03-31T17:09:01;0.60;;;0.60;;
70832;SDS011;58452;59.418;17.962;2023-03-31T17:11:27;1.10;;;0.63;;
70832;SDS011;58452;59.418;17.962;2023-03-31T17:13:54;0.60;;;0.60;;
70832;SDS011;58452;59.418;17.962;2023-03-31T17:16:21;1.95;;;0.68;;
70832;SDS011;58452;59.418;17.962;2023-03-31T17:18:47;1.60;;;0.55;;
70832;SDS011;58452;59.418;17.962;2023-03-31T17:21:13;0.60;;;0.60;;
70832;SDS011;58452;59.418;17.962;2023-03-31T17:23:42;0.90;;;0.40;;
70832;SDS011;58452;59.418;17.962;2023-03-31T17:26:08;1.33;;;0.40;;
70832;SDS011;58452;59.418;17.962;2023-03-31T17:28:36;1.95;;;0.70;;
70832;SDS011;58452;59.418;17.962;2023-03-31T17:31:14;1.05;;;0.50;;
70832;SDS011;58452;59.418;17.962;2023-03-31T17:33:42;1.85;;;0.43;;
70832;SDS011;58452;59.418;17.962;2023-03-31T17:36:08;0.82;;;0.57;;
70832;SDS011;58452;59.418;17.962;2023-03-31T17:38:35;1.75;;;0.45;;
70832;SDS011;58452;59.418;17.962;2023-03-31T17:41:01;0.60;;;0.43;;
70832;SDS011;58452;59.418;17.962;2023-03-31T17:43:27;0.70;;;0.50;;
70832;SDS011;58452;59.418;17.962;2023-03-31T17:46:02;1.35;;;0.73;;
70832;SDS011;58452;59.418;17.962;2023-03-31T17:48:32;0.80;;;0.70;;
70832;SDS011;58452;59.418;17.962;2023-03-31T17:51:02;0.40;;;0.40;;
70832;SDS011;58452;59.418;17.962;2023-03-31T17:53:29;0.50;;;0.40;;
70832;SDS011;58452;59.418;17.962;2023-03-31T17:55:55;1.63;;;0.80;;
70832;SDS011;58452;59.418;17.962;2023-03-31T17:58:21;0.70;;;0.55;;
70832;SDS011;58452;59.418;17.962;2023-03-31T18:00:47;1.10;;;0.88;;
70832;SDS011;58452;59.418;17.962;2023-03-31T18:03:12;4.05;;;0.70;;